Terminal Aerodrome Forecast
Issued by NWS Anchorage, AK

Home | Current Version | Previous Version | Text Only | Print | Product List | Glossary On
Versions: 1 2 3 4 5 6 7 8 9 10 11 12 13 14 15 16 17 18 19 20 21 22 23 24 25 26 27 28 29 30 31 32 33 34 35 36
000
FTAK31 PANC 271740
TAFANC
TAF
PANC 271740Z 2718/2824 34003KT P6SM FEW200
     FM272000 VRB05KT P6SM FEW002 SCT200
     FM280600 VRB06KT P6SM SCT050 BKN090
     FM281000 15006KT P6SM BKN070
     FM281300 VRB03KT P6SM VCSH BKN050
     FM282100 VRB03KT P6SM -SN OVC035=

USA.gov is the U.S. government's official web portal to all federal, state and local government web resources and services.